Data for 08/11/2008

Time Sea-Level Adjusted Pressure Absolute Pressure Temperature Relative Humidity Dew Point   
(mb) (inHg) (mb) (inHg) (C) (F) (%) (C) (F)
00:05 1019 30.09 848 25.04 16.4 61.6 57 8 46.4
00:10 1019 30.09 848 25.04 15.9 60.6 60 8.1 46.6
00:15 1019 30.09 848 25.04 15.2 59.4 64 8.5 47.3
00:20 1019 30.09 849 25.07 14.8 58.6 65 8.2 46.8
00:25 1019 30.09 849 25.07 14.5 58.1 65 8.1 46.5
00:30 1020 30.12 849 25.07 14.7 58.4 64 7.9 46.2
00:35 1020 30.12 849 25.07 14.8 58.7 62 7.6 45.7
00:40 1020 30.12 849 25.07 15 59 61 7.6 45.7
00:45 1020 30.12 849 25.07 15.1 59.1 60 7.4 45.3
00:50 1020 30.12 849 25.07 15.2 59.4 59 7.3 45.2
00:55 1020 30.12 849 25.07 15.3 59.5 59 7.3 45.2
01:00 1020 30.12 849 25.07 15.1 59.3 59 7.3 45.1
01:05 1020 30.12 849 25.07 15 59 60 7.4 45.3
01:10 1020 30.12 849 25.07 14.8 58.6 61 7.5 45.5
01:15 1020 30.12 849 25.07 14.6 58.3 58 6.6 43.9
01:20 1020 30.12 849 25.07 14.7 58.5 57 6.3 43.3
01:25 1020 30.12 849 25.07 14.7 58.5 56 6.1 42.9
01:30 1020 30.12 849 25.07 14.6 58.2 55 5.6 42.2
01:35 1020 30.12 849 25.07 14.6 58.3 53 5.3 41.6
01:40 1020 30.12 849 25.07 14.5 58.2 53 5.2 41.4
01:45 1020 30.12 849 25.07 14.4 58 53 4.9 40.9
01:50 1020 30.12 849 25.07 14.2 57.6 56 5.6 42
01:55 1020 30.12 849 25.07 13.7 56.7 56 5.3 41.5
02:00 1020 30.12 849 25.07 13.6 56.4 57 5.2 41.3
02:05 1020 30.12 849 25.07 13.5 56.2 58 5.4 41.7
02:10 1020 30.12 849 25.07 13.4 56 57 5 40.9
02:15 1020 30.12 849 25.07 13.4 56 54 4.4 39.9
02:20 1020 30.12 849 25.07 13.6 56.5 52 4.2 39.5
02:25 1020 30.12 849 25.07 13.6 56.5 54 4.5 40.1
02:30 1020 30.12 849 25.07 13.5 56.3 52 4 39.1
02:35 1020 30.12 849 25.07 13.5 56.3 51 3.7 38.6
02:40 1020 30.12 849 25.07 13.5 56.3 51 3.7 38.6
02:45 1020 30.12 849 25.07 13.5 56.2 51 3.6 38.6
02:50 1020 30.12 849 25.07 13.3 56 52 3.8 38.9
02:55 1020 30.12 849 25.07 13.2 55.7 51 3.5 38.2
03:00 1020 30.12 850 25.1 13.3 55.9 52 3.8 38.9
03:05 1020 30.12 850 25.1 13.3 56 50 3.2 37.7
03:10 1020 30.12 850 25.1 13.5 56.4 50 3.3 37.9
03:15 1021 30.15 850 25.1 13.7 56.7 47 2.8 37
03:20 1021 30.15 850 25.1 13.8 56.9 48 3.1 37.5
03:25 1021 30.15 850 25.1 13.7 56.7 49 3.3 37.9
03:30 1021 30.15 850 25.1 13.5 56.3 51 3.5 38.3
03:35 1021 30.15 850 25.1 13.3 55.9 53 3.8 38.9
03:40 1021 30.15 850 25.1 12.8 55 57 4.6 40.2
03:45 1021 30.15 850 25.1 12.3 54.2 59 4.5 40.2
03:50 1021 30.15 850 25.1 12.1 53.8 59 4.3 39.7
03:55 1021 30.15 850 25.1 12.2 54 63 5.3 41.6
04:00 1021 30.15 850 25.1 11.6 52.9 65 5.4 41.7
04:05 1021 30.15 850 25.1 11 51.8 67 5.2 41.4
04:10 1021 30.15 850 25.1 10.8 51.4 65 4.6 40.3
04:15 1021 30.15 850 25.1 10.9 51.7 64 4.4 39.9
04:20 1021 30.15 850 25.1 10.9 51.7 64 4.5 40
04:25 1021 30.15 850 25.1 10.9 51.6 63 4.2 39.6
04:30 1021 30.15 850 25.1 10.9 51.5 65 4.5 40.1
04:35 1021 30.15 850 25.1 10.7 51.3 65 4.4 39.9
04:40 1021 30.15 850 25.1 10.6 51 65 4.3 39.8
04:45 1021 30.15 850 25.1 10.7 51.3 65 4.5 40.1
04:50 1021 30.15 850 25.1 10.5 50.9 66 4.6 40.2
04:55 1021 30.15 850 25.1 10.4 50.6 68 4.6 40.4
05:00 1021 30.15 850 25.1 10.2 50.3 69 4.7 40.5
05:05 1021 30.15 850 25.1 10 50 70 4.8 40.7
05:10 1020 30.12 850 25.1 9.9 49.9 70 4.8 40.6
05:15 1020 30.12 850 25.1 9.9 49.7 71 4.8 40.7
05:20 1020 30.12 850 25.1 9.7 49.5 71 4.7 40.5
05:25 1020 30.12 850 25.1 9.7 49.4 71 4.8 40.6
05:30 1020 30.12 850 25.1 9.7 49.5 71 4.8 40.6
05:35 1021 30.15 850 25.1 9.7 49.5 72 4.8 40.7
05:40 1021 30.15 850 25.1 9.6 49.3 72 4.9 40.8
05:45 1021 30.15 850 25.1 9.4 48.9 72 4.7 40.5
05:50 1021 30.15 850 25.1 9.4 48.8 73 4.8 40.7
05:55 1021 30.15 850 25.1 9.2 48.6 74 4.8 40.6
06:00 1021 30.15 850 25.1 9.1 48.4 74 4.8 40.6
06:05 1021 30.15 850 25.1 9.2 48.6 73 4.6 40.3
06:10 1021 30.15 850 25.1 9.3 48.7 73 4.8 40.6
06:15 1021 30.15 850 25.1 9 48.2 75 4.9 40.9
06:20 1021 30.15 850 25.1 8.7 47.7 77 4.9 40.9
06:25 1021 30.15 850 25.1 8.6 47.6 76 4.7 40.5
06:30 1021 30.15 850 25.1 8.8 47.8 74 4.5 40.1
06:35 1021 30.15 850 25.1 8.9 47.9 74 4.6 40.2
06:40 1021 30.15 850 25.1 8.9 48 74 4.6 40.2
06:45 1021 30.15 850 25.1 8.9 47.9 73 4.4 39.9
06:50 1021 30.15 850 25.1 9 48.2 71 4 39.3
06:55 1021 30.15 850 25.1 9.2 48.6 69 3.9 38.9
07:00 1021 30.15 850 25.1 9.6 49.2 67 3.9 38.9
07:05 1021 30.15 850 25.1 9.9 49.9 66 4 39.1
07:10 1021 30.15 850 25.1 10.2 50.3 67 4.3 39.7
07:15 1021 30.15 850 25.1 10.2 50.3 67 4.3 39.8
07:20 1021 30.15 850 25.1 10.2 50.4 67 4.3 39.8
07:25 1021 30.15 850 25.1 10.3 50.5 67 4.4 40
07:30 1021 30.15 850 25.1 10.5 50.8 66 4.5 40
07:35 1021 30.15 850 25.1 11 51.7 64 4.6 40.2
07:40 1021 30.15 850 25.1 11.5 52.7 63 4.7 40.4
07:45 1021 30.15 850 25.1 12 53.7 60 4.6 40.3
07:50 1021 30.15 850 25.1 12.5 54.5 60 5 41.1
07:55 1021 30.15 850 25.1 12.6 54.6 60 5 41
08:00 1021 30.15 850 25.1 13 55.3 58 5 41
08:05 1021 30.15 850 25.1 13.1 55.5 59 5.2 41.4
08:10 1021 30.15 850 25.1 13.2 55.8 58 5.2 41.3
08:15 1021 30.15 850 25.1 13.6 56.5 56 5.1 41.2
08:20 1021 30.15 850 25.1 14 57.2 56 5.4 41.8
08:25 1021 30.15 850 25.1 13.9 57 57 5.5 41.9
08:30 1021 30.15 850 25.1 13.9 56.9 53 4.4 39.9
08:35 1021 30.15 850 25.1 14.2 57.6 54 5.2 41.3
08:40 1021 30.15 850 25.1 14.3 57.8 52 4.6 40.2
08:45 1021 30.15 850 25.1 15.6 60 49 4.9 40.8
08:50 1021 30.15 850 25.1 15.8 60.5 48 5 41
08:55 1021 30.15 850 25.1 15.3 59.5 52 5.6 42.1
09:00 1021 30.15 850 25.1 14.2 57.5 52 4.7 40.4
09:05 1021 30.15 850 25.1 14.7 58.5 49 4.2 39.6
09:10 1021 30.15 850 25.1 14.8 58.7 48 4 39.3
09:15 1021 30.15 850 25.1 14.9 58.7 47 3.9 39
09:20 1021 30.15 850 25.1 15.1 59.2 49 4.5 40.1
09:25 1021 30.15 850 25.1 15.5 59.9 44 3.5 38.3
09:30 1021 30.15 850 25.1 15.9 60.5 44 3.8 38.8
09:35 1021 30.15 850 25.1 16.2 61.2 42 3.5 38.4
09:40 1021 30.15 850 25.1 17.1 62.7 40 3.5 38.4
09:45 1021 30.15 850 25.1 17.6 63.6 37 2.7 36.8
09:50 1021 30.15 850 25.1 17 62.7 41 3.9 39
09:55 1021 30.15 850 25.1 16.3 61.3 40 2.8 37
10:00 1021 30.15 850 25.1 17.1 62.8 37 2.5 36.5
10:05 1021 30.15 850 25.1 17.7 63.8 39 3.5 38.3
10:10 1021 30.15 850 25.1 16.3 61.4 41 3.3 38
10:15 1021 30.15 850 25.1 16.3 61.4 40 2.9 37.3
10:20 1021 30.15 850 25.1 16.5 61.7 41 3.5 38.2
10:25 1021 30.15 850 25.1 16.2 61.2 43 3.6 38.4
10:30 1021 30.15 850 25.1 16.7 62 42 3.7 38.7
10:35 1021 30.15 850 25.1 17 62.6 42 4.2 39.6
10:40 1021 30.15 850 25.1 16.5 61.8 42 3.8 38.8
10:45 1021 30.15 850 25.1 16.8 62.3 39 3 37.5
10:50 1021 30.15 850 25.1 17.3 63.1 41 3.9 39.1
10:55 1021 30.15 850 25.1 17 62.6 40 3.5 38.4
11:00 1021 30.15 850 25.1 17.5 63.5 39 3.6 38.5
11:05 1021 30.15 850 25.1 16.9 62.5 40 3.5 38.3
11:10 1021 30.15 850 25.1 16.9 62.4 40 3.3 37.9
11:15 1021 30.15 850 25.1 17.1 62.8 41 3.7 38.7
11:20 1021 30.15 850 25.1 18.1 64.6 37 3.3 37.9
11:25 1021 30.15 850 25.1 18.4 65.1 37 3.7 38.7
11:30 1021 30.15 850 25.1 18.6 65.5 37 3.9 39.1
11:35 1021 30.15 850 25.1 18.7 65.6 38 4.4 39.9
11:40 1020 30.12 850 25.1 18.8 65.8 37 3.8 38.8
11:45 1021 30.15 850 25.1 19.1 66.4 38 4.7 40.5
11:50 1021 30.15 850 25.1 18.8 65.9 37 3.8 38.8
11:55 1021 30.15 850 25.1 19.1 66.3 36 3.8 38.9
12:00 1020 30.12 850 25.1 19.4 66.8 36 4.2 39.6
12:05 1020 30.12 850 25.1 19.2 66.6 36 4.1 39.3
12:10 1020 30.12 850 25.1 18.9 66.1 38 4.4 39.9
12:15 1020 30.12 849 25.07 19.8 67.7 33 3.5 38.2
12:20 1020 30.12 849 25.07 20.2 68.4 33 3.8 38.8
12:25 1020 30.12 849 25.07 20.4 68.7 35 4.5 40.1
12:30 1020 30.12 849 25.07 20 67.9 36 4.5 40.1
12:35 1020 30.12 849 25.07 20 68 35 4.1 39.3
12:40 1020 30.12 849 25.07 19.9 67.9 34 3.7 38.7
12:45 1020 30.12 849 25.07 21.1 69.9 33 4.3 39.7
12:50 1020 30.12 849 25.07 21.4 70.4 31 3.9 39
12:55 1020 30.12 849 25.07 21.2 70.2 32 4.2 39.6
13:00 1020 30.12 849 25.07 20.8 69.5 33 4.2 39.5
13:05 1020 30.12 849 25.07 21.4 70.4 32 3.9 39.1
13:10 1020 30.12 849 25.07 21.8 71.3 31 3.9 39.1
13:15 1020 30.12 849 25.07 21.8 71.2 31 3.9 39
13:20 1020 30.12 849 25.07 22.2 71.9 29 3.7 38.7
13:25 1020 30.12 849 25.07 22.7 72.9 30 4.7 40.5
13:30 1020 30.12 849 25.07 22.5 72.5 30 4.4 39.9
13:35 1019 30.09 849 25.07 22.5 72.4 31 4.8 40.6
13:40 1019 30.09 849 25.07 21.7 71 31 4.2 39.5
13:45 1019 30.09 849 25.07 21.1 69.9 33 4.5 40.2
13:50 1019 30.09 849 25.07 20.6 69.1 33 3.9 39.1
13:55 1019 30.09 849 25.07 20.9 69.6 34 4.4 39.9
14:00 1019 30.09 849 25.07 21.2 70.2 31 3.6 38.4
14:05 1019 30.09 848 25.04 20.9 69.7 32 3.7 38.7
14:10 1019 30.09 848 25.04 21.3 70.3 32 4.1 39.4
14:15 1019 30.09 848 25.04 22.3 72.1 29 3.7 38.7
14:20 1019 30.09 848 25.04 22.2 72 28 3.3 37.9
14:25 1019 30.09 848 25.04 22.4 72.3 29 3.7 38.6
14:30 1019 30.09 848 25.04 21.7 71 28 2.4 36.4
14:35 1019 30.09 848 25.04 22.4 72.3 27 2.8 37.1
14:40 1019 30.09 848 25.04 23.7 74.6 24 2.4 36.3
14:45 1019 30.09 848 25.04 24.3 75.7 24 2.9 37.2
14:50 1019 30.09 848 25.04 24.4 75.8 25 3.1 37.7
14:55 1019 30.09 848 25.04 24.4 75.9 23 2.3 36.2
15:00 1019 30.09 848 25.04 24.4 75.8 23 2 35.6
15:05 1019 30.09 848 25.04 24.5 76.1 22 1.9 35.5
15:10 1019 30.09 848 25.04 24.7 76.4 23 2.1 35.9
15:15 1019 30.09 848 25.04 24.8 76.7 22 1.9 35.5
15:20 1019 30.09 848 25.04 24.6 76.3 22 1.8 35.3
15:25 1019 30.09 848 25.04 24.7 76.4 23 2.2 35.9
15:30 1019 30.09 848 25.04 24.7 76.5 23 2.3 36.1
15:35 1019 30.09 848 25.04 24.6 76.3 22 1.6 34.9
15:40 1019 30.09 848 25.04 24.7 76.4 21 1.3 34.4
15:45 1019 30.09 848 25.04 25.1 77.2 22 2 35.7
15:50 1018 30.06 848 25.04 25 77 23 2.5 36.4
15:55 1018 30.06 848 25.04 25 77 19 0.3 32.5
16:00 1018 30.06 848 25.04 25.7 78.2 20 1.4 34.6
16:05 1018 30.06 848 25.04 25.6 78.1 19 0.6 33.1
16:10 1018 30.06 848 25.04 25.8 78.4 19 0.4 32.8
16:15 1018 30.06 848 25.04 25.6 78 20 1.4 34.5
16:20 1018 30.06 847 25.01 25.4 77.7 20 1.3 34.4
16:25 1018 30.06 847 25.01 25.4 77.7 18 -0.4 31.3
16:30 1018 30.06 847 25.01 25.3 77.6 17 -1.2 29.9
16:35 1018 30.06 847 25.01 25.6 78.1 19 0.8 33.5
16:40 1018 30.06 847 25.01 25.7 78.2 17 -1.2 29.8
16:45 1018 30.06 847 25.01 25.2 77.3 15 -3 26.6
16:50 1018 30.06 847 25.01 25.8 78.4 17 -0.5 31
16:55 1018 30.06 847 25.01 25.6 78 15 -2.3 27.8
17:00 1018 30.06 847 25.01 25.8 78.4 14 -3.5 25.8
17:05 1018 30.06 847 25.01 25.5 77.9 13 -4.8 23.4
17:10 1018 30.06 847 25.01 25.4 77.6 14 -4.3 24.3
17:15 1018 30.06 847 25.01 25.5 78 13 -4.6 23.7
17:20 1018 30.06 847 25.01 25.6 78 15 -3 26.5
17:25 1018 30.06 847 25.01 25.6 78.1 13 -4.3 24.2
17:30 1018 30.06 847 25.01 25.6 78.1 14 -3.5 25.7
17:35 1018 30.06 847 25.01 25.7 78.2 14 -3.6 25.6
17:40 1018 30.06 847 25.01 25.6 78 14 -3.6 25.5
17:45 1018 30.06 847 25.01 25.5 77.9 15 -2.3 27.8
17:50 1018 30.06 847 25.01 25.6 78.2 13 -4.7 23.5
17:55 1018 30.06 847 25.01 25.6 78.1 13 -4.2 24.5
18:00 1018 30.06 847 25.01 25.7 78.2 14 -3.9 24.9
18:05 1018 30.06 847 25.01 25.6 78.1 13 -4.3 24.3
18:10 1017 30.03 847 25.01 25.7 78.2 15 -3 26.6
18:15 1017 30.03 847 25.01 25.5 77.8 15 -2.4 27.6
18:20 1017 30.03 847 25.01 25.6 78.1 15 -3 26.7
18:25 1017 30.03 847 25.01 25.8 78.5 14 -3.7 25.4
18:30 1017 30.03 847 25.01 25.7 78.3 13 -4.2 24.4
18:35 1017 30.03 847 25.01 25.6 78 13 -4.9 23.1
18:40 1017 30.03 847 25.01 25.6 78.1 13 -4.4 24.1
18:45 1017 30.03 846 24.98 25.5 77.9 13 -4.3 24.3
18:50 1017 30.03 846 24.98 25.5 77.8 13 -4.3 24.3
18:55 1017 30.03 846 24.98 25.1 77.1 14 -3.8 25.2
19:00 1017 30.03 846 24.98 24.8 76.6 15 -3.4 26
19:05 1017 30.03 846 24.98 24.6 76.3 15 -3.6 25.6
19:10 1017 30.03 846 24.98 24.5 76.2 16 -3.1 26.4
19:15 1017 30.03 846 24.98 24.4 76 16 -3.1 26.4
19:20 1017 30.03 847 25.01 24.2 75.5 18 -1.7 28.9
19:25 1017 30.03 847 25.01 24.1 75.3 18 -1.4 29.4
19:30 1017 30.03 847 25.01 24 75.2 18 -1.8 28.7
19:35 1017 30.03 847 25.01 24 75.2 18 -1.5 29.2
19:40 1017 30.03 847 25.01 23.9 75 19 -0.7 30.7
19:45 1017 30.03 847 25.01 23.7 74.6 21 0.5 33
19:50 1017 30.03 847 25.01 23.2 73.7 20 -0.9 30.3
19:55 1017 30.03 847 25.01 23.1 73.6 20 -0.8 30.5
20:00 1017 30.03 847 25.01 23 73.3 20 -0.9 30.3
20:05 1017 30.03 847 25.01 22.8 73.1 21 -0.3 31.5
20:10 1017 30.03 847 25.01 22.5 72.4 22 0.1 32.1
20:15 1017 30.03 847 25.01 22.2 72 21 -1.2 29.8
20:20 1017 30.03 847 25.01 22.1 71.8 22 -0.4 31.3
20:25 1017 30.03 847 25.01 22 71.6 21 -1 30.2
20:30 1018 30.06 847 25.01 21.8 71.2 24 0.5 32.9
20:35 1018 30.06 847 25.01 21.1 70 26 1.1 33.9
20:40 1018 30.06 847 25.01 20.5 68.9 27 0.9 33.6
20:45 1018 30.06 847 25.01 20.4 68.7 25 -0.4 31.3
20:50 1018 30.06 847 25.01 20.3 68.6 23 -1.1 30.1
20:55 1018 30.06 847 25.01 19.8 67.7 27 0.7 33.3
21:00 1018 30.06 847 25.01 19.1 66.3 28 0.1 32.2
21:05 1018 30.06 847 25.01 18.8 65.8 28 -0 31.9
21:10 1018 30.06 847 25.01 18.5 65.4 27 -0.8 30.5
21:15 1018 30.06 847 25.01 18.4 65.1 26 -1.1 30.1
21:20 1018 30.06 847 25.01 18.3 64.9 29 -0 31.9
21:25 1018 30.06 847 25.01 17.9 64.1 30 0.3 32.5
21:30 1018 30.06 847 25.01 17.7 63.9 27 -1.2 29.9
21:35 1018 30.06 847 25.01 18 64.5 23 -3.1 26.5
21:40 1018 30.06 847 25.01 18.8 65.9 23 -2.5 27.6
21:45 1018 30.06 847 25.01 18.6 65.6 27 -0.6 30.9
21:50 1018 30.06 848 25.04 18.6 65.4 22 -3.4 25.9
21:55 1018 30.06 848 25.04 18.8 65.9 23 -2.4 27.7
22:00 1018 30.06 848 25.04 18.8 65.9 22 -3.3 26
22:05 1018 30.06 848 25.04 18.8 65.9 23 -2.7 27.2
22:10 1018 30.06 848 25.04 18.3 64.9 25 -2 28.5
22:15 1019 30.09 848 25.04 18 64.3 25 -2.4 27.6
22:20 1019 30.09 848 25.04 17.8 64 26 -1.9 28.7
22:25 1019 30.09 848 25.04 17.4 63.4 28 -1 30.2
22:30 1019 30.09 848 25.04 16.7 62.1 30 -1 30.1
22:35 1019 30.09 848 25.04 16.3 61.4 30 -1.2 29.9
22:40 1019 30.09 848 25.04 16.6 62 27 -2.1 28.2
22:45 1019 30.09 848 25.04 17.1 62.8 26 -2.2 28
22:50 1019 30.09 848 25.04 17.2 63 28 -1.5 29.3
22:55 1019 30.09 848 25.04 17.2 63 28 -1.2 29.9
23:00 1019 30.09 848 25.04 16.9 62.4 31 -0.4 31.3
23:05 1019 30.09 848 25.04 15.7 60.3 33 -0.4 31.3
23:10 1019 30.09 848 25.04 15.3 59.5 34 -0.5 31.2
23:15 1019 30.09 848 25.04 15.5 59.8 33 -0.6 31
23:20 1019 30.09 848 25.04 15.6 60.1 34 0.1 32.1
23:25 1019 30.09 848 25.04 15.5 59.8 35 0.2 32.3
23:30 1019 30.09 848 25.04 15.1 59.2 36 0.2 32.4
23:35 1019 30.09 848 25.04 14.7 58.5 36 0.1 32.1
23:40 1019 30.09 848 25.04 14.5 58.2 36 -0.1 31.7
23:45 1019 30.09 848 25.04 14.6 58.3 37 0.2 32.4
23:50 1019 30.09 848 25.04 14.5 58 39 0.8 33.4
23:55 1019 30.09 849 25.07 14 57.2 40 0.7 33.2
24:00 1019 30.09 849 25.07 13.9 57 40 0.4 32.8